Time;durP1;ratioP1;P1;durP2;ratioP2;P2;SDS_P1;SDS_P2;PMS_P1;PMS_P2;Temp;Humidity;BMP_temperature;BMP_pressure;BME280_temperature;BME280_humidity;BME280_pressure;Samples;Min_cycle;Max_cycle;Signal;HPM_P1;HPM_P2
2022/05/23 00:00:06;;;;;;;5.78;2.40;;;14.50;99.90;;;;;;5031996;28;20057;-64
2022/05/23 00:02:31;;;;;;;4.03;1.90;;;14.50;99.90;;;;;;5032085;28;20512;-64
2022/05/23 00:04:57;;;;;;;2.92;2.35;;;14.40;99.90;;;;;;5032343;28;20072;-64
2022/05/23 00:07:28;;;;;;;4.68;2.50;;;14.40;99.90;;;;;;5032384;28;20047;-63
2022/05/23 00:09:54;;;;;;;4.43;2.90;;;14.40;99.90;;;;;;5031217;28;20029;-63
2022/05/23 00:12:22;;;;;;;6.63;3.20;;;14.30;99.90;;;;;;5029031;28;20025;-63
2022/05/23 00:14:51;;;;;;;7.45;2.85;;;14.40;99.90;;;;;;5028974;28;20033;-63
2022/05/23 00:17:19;;;;;;;5.60;2.42;;;14.40;99.90;;;;;;5031886;28;20029;-63
2022/05/23 00:19:45;;;;;;;5.95;3.00;;;14.40;99.90;;;;;;5031812;28;20040;-63
2022/05/23 00:22:11;;;;;;;7.40;3.08;;;14.40;99.90;;;;;;5031797;28;20065;-64
2022/05/23 00:24:37;;;;;;;6.03;2.45;;;14.30;99.90;;;;;;5028737;28;20053;-63
2022/05/23 00:27:04;;;;;;;6.28;2.40;;;14.30;99.90;;;;;;5023721;28;20076;-63
2022/05/23 00:29:30;;;;;;;5.53;2.80;;;14.20;99.90;;;;;;5010837;28;20100;-63
2022/05/23 00:37:25;;;;;;;6.55;2.13;;;14.20;99.90;;;;;;5011915;28;20565;-63
2022/05/23 00:39:50;;;;;;;3.92;2.92;;;14.10;99.90;;;;;;5013973;28;20631;-63
2022/05/23 00:45:05;;;;;;;8.25;2.83;;;14.10;99.90;;;;;;5011970;28;20819;-63
2022/05/23 00:47:34;;;;;;;6.07;2.90;;;14.10;99.90;;;;;;5011344;28;20057;-63
2022/05/23 00:50:00;;;;;;;6.00;2.70;;;14.20;99.90;;;;;;5011468;28;20025;-63
2022/05/23 00:52:52;;;;;;;4.63;2.70;;;14.10;99.90;;;;;;5011448;28;20014;-63
2022/05/23 00:55:24;;;;;;;5.13;3.05;;;14.10;99.90;;;;;;5010948;28;20049;-63
2022/05/23 00:57:57;;;;;;;4.60;2.60;;;14.10;99.90;;;;;;5020405;28;20026;-63
2022/05/23 01:00:23;;;;;;;6.28;2.70;;;14.00;99.90;;;;;;5027414;28;20080;-63
2022/05/23 01:02:55;;;;;;;5.30;2.85;;;14.00;99.90;;;;;;5027920;28;20064;-63
2022/05/23 01:05:22;;;;;;;3.58;2.42;;;13.90;99.90;;;;;;5028036;28;20075;-63
2022/05/23 01:07:47;;;;;;;7.35;2.92;;;13.90;99.90;;;;;;5029877;28;20102;-63
2022/05/23 01:10:13;;;;;;;5.22;3.20;;;13.90;99.90;;;;;;5030773;28;20432;-63
2022/05/23 01:12:41;;;;;;;5.43;3.20;;;14.00;99.90;;;;;;5030848;28;20030;-63
2022/05/23 01:15:18;;;;;;;6.88;3.60;;;13.90;99.90;;;;;;5030863;28;20017;-63
2022/05/23 01:17:44;;;;;;;4.70;3.00;;;13.90;99.90;;;;;;5030708;28;20052;-63
2022/05/23 01:20:10;;;;;;;8.23;3.25;;;13.90;99.90;;;;;;5030547;28;20384;-63
2022/05/23 01:23:12;;;;;;;9.18;3.03;;;13.90;99.90;;;;;;5030702;28;20158;-63
2022/05/23 01:25:41;;;;;;;4.57;2.90;;;13.90;99.90;;;;;;5030348;28;20064;-64
2022/05/23 01:28:07;;;;;;;3.83;2.53;;;13.90;99.90;;;;;;5030405;28;20036;-63
2022/05/23 01:30:34;;;;;;;5.70;2.78;;;13.80;99.90;;;;;;5030701;28;20040;-63
2022/05/23 01:33:02;;;;;;;4.50;2.60;;;13.80;99.90;;;;;;5030552;28;20022;-63
2022/05/23 01:35:27;;;;;;;4.63;2.95;;;13.80;99.90;;;;;;5030669;28;20029;-63
2022/05/23 01:37:53;;;;;;;5.28;3.03;;;13.80;99.90;;;;;;5030589;28;20025;-63
2022/05/23 01:40:20;;;;;;;6.72;3.30;;;13.70;99.90;;;;;;5030164;28;20022;-63
2022/05/23 01:42:46;;;;;;;4.88;3.58;;;13.70;99.90;;;;;;5030546;28;20036;-63
2022/05/23 01:45:16;;;;;;;7.30;3.38;;;13.60;99.90;;;;;;5029217;28;20044;-62
2022/05/23 01:47:41;;;;;;;6.87;3.80;;;13.60;99.90;;;;;;5011008;28;20542;-63
2022/05/23 01:50:08;;;;;;;6.20;3.33;;;13.60;99.90;;;;;;5006781;28;20271;-63
2022/05/23 01:52:34;;;;;;;5.50;3.55;;;13.60;99.90;;;;;;5007538;28;20037;-63
2022/05/23 01:55:00;;;;;;;5.45;3.67;;;13.50;99.90;;;;;;5007076;28;20026;-63
2022/05/23 01:57:25;;;;;;;7.32;3.65;;;13.50;99.90;;;;;;5007211;28;20041;-62
2022/05/23 02:02:36;;;;;;;5.60;3.50;;;13.50;99.90;;;;;;5009982;28;20531;-62
2022/05/23 02:05:03;;;;;;;6.75;3.55;;;13.50;99.90;;;;;;5009103;28;20022;-62
2022/05/23 02:07:29;;;;;;;8.00;3.83;;;13.50;99.90;;;;;;5010452;28;20034;-63
2022/05/23 02:09:55;;;;;;;7.18;3.90;;;13.50;99.90;;;;;;5010114;28;20026;-63
2022/05/23 02:12:21;;;;;;;9.27;3.22;;;13.50;99.90;;;;;;5010427;28;20052;-62
2022/05/23 02:14:49;;;;;;;6.07;3.08;;;13.50;99.90;;;;;;5010264;28;20366;-62
2022/05/23 02:17:15;;;;;;;5.10;3.22;;;13.50;99.90;;;;;;5010058;28;20109;-63
2022/05/23 02:19:41;;;;;;;7.72;3.50;;;13.60;99.90;;;;;;5010149;28;20555;-62
2022/05/23 02:22:07;;;;;;;4.78;3.30;;;13.50;99.90;;;;;;5010059;28;20116;-63
2022/05/23 02:24:33;;;;;;;6.25;3.05;;;13.60;99.90;;;;;;5010234;28;20161;-62
2022/05/23 02:26:59;;;;;;;4.45;3.22;;;13.60;99.90;;;;;;5011894;28;20033;-62
2022/05/23 02:29:25;;;;;;;5.70;3.55;;;13.60;99.90;;;;;;5026825;28;20499;-62
2022/05/23 02:31:51;;;;;;;7.63;3.65;;;13.60;99.90;;;;;;5023665;28;20018;-62
2022/05/23 02:34:18;;;;;;;8.13;3.78;;;13.60;99.90;;;;;;5027032;28;20049;-62
2022/05/23 02:36:45;;;;;;;6.20;4.10;;;13.60;99.90;;;;;;5026689;28;20473;-62
2022/05/23 02:39:11;;;;;;;6.10;3.78;;;13.60;99.90;;;;;;5026762;28;20048;-62
2022/05/23 02:41:37;;;;;;;6.53;3.53;;;13.70;99.90;;;;;;5026339;28;20053;-62
2022/05/23 02:44:03;;;;;;;9.30;4.00;;;13.60;99.90;;;;;;5029204;28;20025;-62
2022/05/23 02:46:29;;;;;;;7.28;3.85;;;13.60;99.90;;;;;;5029751;28;20083;-63
2022/05/23 02:48:55;;;;;;;10.88;3.88;;;13.60;99.90;;;;;;5029956;28;20056;-62
2022/05/23 02:51:22;;;;;;;7.18;4.00;;;13.50;99.90;;;;;;5029761;28;20063;-63
2022/05/23 02:53:48;;;;;;;6.82;4.38;;;13.60;99.90;;;;;;5029595;28;20045;-63
2022/05/23 02:56:15;;;;;;;8.90;4.50;;;13.60;99.90;;;;;;5028693;28;20503;-62
2022/05/23 02:58:40;;;;;;;7.72;4.90;;;13.50;99.90;;;;;;5026212;28;20039;-63
2022/05/23 03:01:06;;;;;;;7.75;3.70;;;13.60;99.90;;;;;;5026159;28;20049;-63
2022/05/23 03:03:33;;;;;;;7.93;3.88;;;13.50;99.90;;;;;;5026439;28;20022;-63
2022/05/23 03:05:59;;;;;;;9.68;4.28;;;13.60;99.90;;;;;;5027074;28;20028;-63
2022/05/23 03:08:27;;;;;;;5.75;3.95;;;13.60;99.90;;;;;;5029796;28;20029;-62
2022/05/23 03:10:58;;;;;;;6.32;3.78;;;13.60;99.90;;;;;;5029011;28;20025;-63
2022/05/23 03:13:24;;;;;;;10.15;4.07;;;13.60;99.90;;;;;;5029311;28;20029;-63
2022/05/23 03:15:49;;;;;;;6.45;3.85;;;13.60;99.90;;;;;;5029986;28;20032;-63
2022/05/23 03:18:15;;;;;;;11.38;4.63;;;13.60;99.90;;;;;;5032785;28;20021;-62
2022/05/23 03:20:42;;;;;;;8.25;4.47;;;13.60;99.90;;;;;;5032752;28;20108;-63
2022/05/23 03:28:37;;;;;;;9.10;4.07;;;13.60;99.90;;;;;;5032588;28;20519;-63
2022/05/23 03:31:04;;;;;;;7.45;4.50;;;13.70;99.90;;;;;;5032707;28;20038;-64
2022/05/23 03:33:30;;;;;;;10.02;4.28;;;13.60;99.90;;;;;;5032793;28;20018;-64
2022/05/23 03:35:56;;;;;;;10.23;5.40;;;13.60;99.90;;;;;;5032502;28;20030;-64
2022/05/23 03:38:22;;;;;;;11.63;4.88;;;13.70;99.90;;;;;;5032510;28;20029;-64
2022/05/23 03:40:48;;;;;;;12.23;5.00;;;13.70;99.90;;;;;;5032346;28;20048;-63
2022/05/23 03:43:14;;;;;;;11.27;5.50;;;13.60;99.90;;;;;;5032287;28;20026;-63
2022/05/23 03:45:40;;;;;;;9.98;5.15;;;13.60;99.90;;;;;;5032524;28;20029;-63
2022/05/23 03:48:06;;;;;;;12.25;5.38;;;13.60;99.90;;;;;;5032431;28;20033;-63
2022/05/23 03:50:33;;;;;;;12.55;5.57;;;13.60;99.90;;;;;;5032408;28;20096;-63
2022/05/23 03:53:01;;;;;;;13.13;5.03;;;13.60;99.90;;;;;;5032114;28;20036;-63
2022/05/23 03:55:27;;;;;;;8.95;4.93;;;13.60;99.90;;;;;;5032037;28;20027;-63
2022/05/23 03:57:52;;;;;;;12.32;4.80;;;13.50;99.90;;;;;;5032039;28;20037;-63
2022/05/23 04:00:19;;;;;;;9.57;5.25;;;13.50;99.90;;;;;;5031955;28;20048;-63
2022/05/23 04:02:45;;;;;;;7.70;4.43;;;13.50;99.90;;;;;;5031944;28;20036;-63
2022/05/23 04:05:12;;;;;;;10.10;4.82;;;13.50;99.90;;;;;;5028591;28;20112;-64
2022/05/23 04:07:39;;;;;;;9.70;5.45;;;13.40;99.90;;;;;;5031990;28;20028;-63
2022/05/23 04:10:09;;;;;;;13.52;4.50;;;13.40;99.90;;;;;;5031824;28;20033;-63
2022/05/23 04:12:36;;;;;;;13.60;4.70;;;13.40;99.90;;;;;;5032156;28;20045;-63
2022/05/23 04:15:02;;;;;;;10.27;4.63;;;13.40;99.90;;;;;;5031888;28;20044;-63
2022/05/23 04:17:27;;;;;;;10.18;4.90;;;13.40;99.90;;;;;;5028413;28;20037;-63
2022/05/23 04:19:53;;;;;;;8.80;4.70;;;13.40;99.90;;;;;;5028386;28;20048;-63
2022/05/23 04:22:19;;;;;;;11.27;4.35;;;13.40;99.90;;;;;;5031228;28;20053;-63
2022/05/23 04:24:44;;;;;;;11.80;4.72;;;13.40;99.90;;;;;;5027613;28;20057;-64
2022/05/23 04:27:10;;;;;;;11.82;5.07;;;13.40;99.90;;;;;;5031255;28;20033;-63
2022/05/23 04:29:36;;;;;;;8.05;4.70;;;13.40;99.90;;;;;;5031577;28;20029;-64
2022/05/23 04:32:01;;;;;;;12.05;5.38;;;13.30;99.90;;;;;;5028991;28;20028;-63
2022/05/23 04:37:11;;;;;;;12.63;5.88;;;13.30;99.90;;;;;;5028647;28;20043;-64
2022/05/23 04:39:37;;;;;;;12.70;5.88;;;13.30;99.90;;;;;;5030976;28;20108;-63
2022/05/23 04:42:03;;;;;;;11.70;6.13;;;13.30;99.90;;;;;;5031346;28;20033;-64
2022/05/23 04:44:30;;;;;;;10.48;5.50;;;13.30;99.90;;;;;;5031219;28;20411;-63
2022/05/23 04:49:49;;;;;;;10.07;5.47;;;13.30;99.90;;;;;;4984691;28;20060;-64
2022/05/23 04:52:19;;;;;;;13.88;5.63;;;13.40;99.90;;;;;;5031107;28;20033;-64
2022/05/23 04:54:46;;;;;;;11.60;5.70;;;13.40;99.90;;;;;;5030861;28;20061;-63
2022/05/23 04:57:12;;;;;;;10.98;5.00;;;13.40;99.90;;;;;;5030877;28;20848;-63
2022/05/23 04:59:38;;;;;;;14.63;5.93;;;13.40;99.90;;;;;;5030692;28;20504;-64
2022/05/23 05:02:04;;;;;;;9.70;5.05;;;13.40;99.90;;;;;;5028202;28;20511;-64
2022/05/23 05:04:31;;;;;;;8.75;4.35;;;13.30;99.90;;;;;;5027904;28;20447;-64
2022/05/23 05:06:57;;;;;;;12.80;5.03;;;13.30;99.90;;;;;;5027630;28;20036;-64
2022/05/23 05:09:23;;;;;;;10.75;4.63;;;13.30;99.90;;;;;;5030612;28;20022;-64
2022/05/23 05:11:49;;;;;;;10.65;5.10;;;13.30;99.90;;;;;;5028580;28;20036;-64
2022/05/23 05:14:15;;;;;;;10.30;5.03;;;13.30;99.90;;;;;;5027629;28;20029;-64
2022/05/23 05:16:41;;;;;;;10.18;4.43;;;13.30;99.90;;;;;;5029211;28;20083;-64
2022/05/23 05:19:07;;;;;;;8.15;3.88;;;13.30;99.90;;;;;;5031126;28;20025;-64
2022/05/23 05:21:32;;;;;;;7.07;4.30;;;13.20;99.90;;;;;;5028788;28;20388;-64
2022/05/23 05:23:58;;;;;;;11.45;4.45;;;13.30;99.90;;;;;;5027421;28;20112;-64
2022/05/23 05:26:25;;;;;;;7.13;4.05;;;13.30;99.90;;;;;;5028304;28;20125;-64
2022/05/23 05:28:51;;;;;;;7.43;3.97;;;13.30;99.90;;;;;;5030701;28;20104;-63
2022/05/23 05:31:44;;;;;;;8.07;4.38;;;13.40;99.90;;;;;;5030566;28;20117;-64
2022/05/23 05:34:15;;;;;;;8.48;3.58;;;13.40;99.90;;;;;;5030401;28;20029;-64
2022/05/23 05:36:45;;;;;;;7.05;4.05;;;13.40;99.90;;;;;;5030241;28;20507;-64
2022/05/23 05:39:14;;;;;;;17.50;4.45;;;13.40;99.90;;;;;;5029532;28;20420;-64
2022/05/23 05:42:04;;;;;;;8.27;3.72;;;13.50;99.90;;;;;;5029789;28;20072;-64
2022/05/23 05:44:33;;;;;;;7.47;4.25;;;13.50;99.90;;;;;;5030050;28;20032;-64
2022/05/23 05:47:04;;;;;;;6.10;4.18;;;13.50;99.90;;;;;;5030307;28;20079;-64
2022/05/23 05:49:35;;;;;;;8.13;3.85;;;13.50;99.90;;;;;;5030091;28;20025;-64
2022/05/23 05:52:03;;;;;;;7.75;3.60;;;13.60;99.90;;;;;;5028516;28;20468;-64
2022/05/23 05:54:30;;;;;;;7.53;3.13;;;13.60;99.90;;;;;;5026650;28;20072;-64
2022/05/23 05:56:58;;;;;;;11.07;3.25;;;13.60;99.90;;;;;;5026711;28;20120;-64
2022/05/23 05:59:24;;;;;;;4.43;2.28;;;13.60;99.90;;;;;;5025761;28;20045;-64
2022/05/23 06:01:50;;;;;;;5.68;2.50;;;13.50;99.90;;;;;;5027265;28;20069;-64
2022/05/23 06:04:16;;;;;;;6.18;2.92;;;13.60;99.90;;;;;;5026888;28;20100;-64
2022/05/23 06:12:10;;;;;;;4.10;2.50;;;13.50;99.90;;;;;;5029996;28;20618;-63
2022/05/23 06:14:36;;;;;;;4.97;2.58;;;13.50;99.90;;;;;;5029547;28;20120;-63
2022/05/23 06:17:02;;;;;;;6.97;2.65;;;13.50;99.90;;;;;;5026404;28;20117;-63
2022/05/23 06:19:27;;;;;;;3.03;1.90;;;13.50;99.90;;;;;;5029717;28;20408;-63
2022/05/23 06:21:53;;;;;;;2.95;1.98;;;13.50;99.90;;;;;;5029565;28;20076;-63
2022/05/23 06:24:19;;;;;;;4.50;2.30;;;13.40;99.90;;;;;;5026902;28;20117;-63
2022/05/23 06:26:44;;;;;;;3.67;2.30;;;13.40;99.90;;;;;;5026537;28;20499;-63
2022/05/23 06:29:11;;;;;;;4.40;2.45;;;13.50;99.90;;;;;;5026260;28;20033;-63
2022/05/23 06:31:36;;;;;;;4.82;2.25;;;13.50;99.90;;;;;;5029343;28;20463;-63
2022/05/23 06:34:02;;;;;;;5.15;2.22;;;13.50;99.90;;;;;;5029600;28;20045;-63
2022/05/23 06:36:28;;;;;;;5.00;2.28;;;13.50;99.90;;;;;;5029674;28;20041;-63
2022/05/23 06:38:53;;;;;;;4.90;2.60;;;13.50;99.90;;;;;;5029439;28;20021;-63
2022/05/23 06:41:19;;;;;;;4.53;2.10;;;13.60;99.90;;;;;;5029057;28;20477;-63
2022/05/23 06:43:45;;;;;;;5.13;2.50;;;13.60;99.90;;;;;;5028967;28;20377;-63
2022/05/23 06:46:12;;;;;;;5.53;2.60;;;13.60;99.90;;;;;;5029348;28;20056;-63
2022/05/23 06:48:39;;;;;;;5.88;2.55;;;13.60;99.90;;;;;;5029401;28;20037;-63
2022/05/23 06:51:05;;;;;;;5.40;2.20;;;13.60;99.90;;;;;;5031897;28;20348;-63
2022/05/23 06:53:31;;;;;;;5.15;2.47;;;13.70;99.90;;;;;;5033248;28;20044;-63
2022/05/23 06:55:57;;;;;;;4.65;2.40;;;13.70;99.90;;;;;;5032869;28;20014;-63
2022/05/23 06:58:23;;;;;;;6.43;2.85;;;13.80;99.90;;;;;;5032877;28;20030;-64
2022/05/23 07:00:50;;;;;;;6.95;2.63;;;13.80;99.90;;;;;;5031858;28;20377;-63
2022/05/23 07:03:16;;;;;;;5.15;2.50;;;13.80;99.90;;;;;;5030093;28;20112;-64
2022/05/23 07:13:56;;;;;;;6.68;2.83;;;13.90;99.90;;;;;;5033100;28;20020;-63
2022/05/23 07:16:22;;;;;;;5.93;2.47;;;13.80;99.90;;;;;;5032943;28;20025;-63
2022/05/23 07:18:49;;;;;;;4.85;2.30;;;13.90;99.90;;;;;;5032813;28;20040;-63
2022/05/23 07:21:15;;;;;;;4.53;2.40;;;13.80;99.90;;;;;;5032434;28;20408;-63
2022/05/23 07:23:41;;;;;;;6.88;2.47;;;13.90;99.90;;;;;;5032545;28;20022;-63
2022/05/23 07:26:10;;;;;;;8.15;2.55;;;13.90;99.90;;;;;;5032206;28;20033;-63
2022/05/23 07:28:36;;;;;;;6.45;2.40;;;13.90;99.90;;;;;;5032484;28;20030;-64
2022/05/23 07:31:03;;;;;;;6.15;3.05;;;13.90;99.90;;;;;;5032638;28;20029;-63
2022/05/23 07:33:29;;;;;;;3.03;2.22;;;14.00;99.90;;;;;;5026421;28;20029;-64
2022/05/23 07:35:56;;;;;;;7.45;2.80;;;13.90;99.90;;;;;;5020337;28;20037;-64
2022/05/23 07:38:22;;;;;;;4.22;2.28;;;14.00;99.90;;;;;;5024131;28;20021;-63
2022/05/23 07:40:50;;;;;;;5.82;2.70;;;14.10;99.90;;;;;;5012331;28;20374;-64
2022/05/23 07:43:16;;;;;;;4.18;2.10;;;14.00;99.90;;;;;;5012905;28;20030;-65
2022/05/23 07:45:42;;;;;;;4.78;2.60;;;14.10;99.90;;;;;;5012385;28;20041;-65
2022/05/23 07:48:08;;;;;;;9.15;2.90;;;14.20;99.90;;;;;;5012189;28;20556;-65
2022/05/23 07:50:34;;;;;;;8.82;2.70;;;14.10;99.90;;;;;;5012966;28;20125;-65
2022/05/23 08:01:29;;;;;;;7.25;3.03;;;14.60;99.90;;;;;;5011067;28;20057;-64
2022/05/23 08:03:55;;;;;;;5.68;2.60;;;14.60;99.90;;;;;;5012376;28;20030;-65
2022/05/23 08:06:21;;;;;;;8.63;2.95;;;14.60;99.90;;;;;;5012104;28;20038;-65
2022/05/23 08:08:47;;;;;;;6.07;2.78;;;14.70;99.90;;;;;;5012180;28;20033;-65
2022/05/23 08:11:13;;;;;;;6.00;2.60;;;14.70;99.90;;;;;;5019061;28;20488;-65
2022/05/23 08:13:41;;;;;;;4.95;2.72;;;14.80;99.90;;;;;;5031955;28;20030;-65
2022/05/23 08:16:07;;;;;;;6.95;3.20;;;14.80;99.90;;;;;;5031663;28;20060;-65
2022/05/23 08:18:33;;;;;;;5.05;2.42;;;15.10;99.90;;;;;;5031595;28;20036;-65
2022/05/23 08:20:59;;;;;;;5.75;2.97;;;15.20;99.90;;;;;;5031523;28;20045;-65
2022/05/23 08:23:25;;;;;;;6.80;2.55;;;15.30;99.90;;;;;;5030145;28;20511;-67
2022/05/23 08:25:51;;;;;;;5.47;2.50;;;15.40;99.90;;;;;;5028137;28;20029;-64
2022/05/23 08:28:17;;;;;;;5.53;2.65;;;15.30;99.90;;;;;;5029165;28;20022;-63
2022/05/23 08:30:43;;;;;;;8.35;2.35;;;15.50;99.90;;;;;;5031353;28;20022;-63
2022/05/23 08:33:08;;;;;;;3.90;2.80;;;15.50;99.90;;;;;;5031485;28;20488;-64
2022/05/23 08:35:34;;;;;;;4.18;2.42;;;15.50;99.90;;;;;;5031403;28;20022;-63
2022/05/23 08:38:00;;;;;;;4.25;2.25;;;15.50;99.90;;;;;;5029153;28;20095;-68
2022/05/23 08:40:59;;;;;;;8.23;2.95;;;15.50;99.90;;;;;;5028543;28;20392;-64
2022/05/23 08:43:45;;;;;;;5.00;2.63;;;15.50;99.90;;;;;;5022125;28;20049;-63
2022/05/23 08:46:17;;;;;;;5.53;2.63;;;15.50;99.90;;;;;;5028206;28;20069;-66
2022/05/23 08:48:57;;;;;;;4.57;2.85;;;15.50;99.90;;;;;;5030306;28;20392;-66
2022/05/23 08:51:48;;;;;;;7.35;3.38;;;15.50;99.90;;;;;;5015035;28;20033;-66
2022/05/23 08:54:28;;;;;;;6.20;2.88;;;15.60;99.90;;;;;;5030414;28;20051;-66
2022/05/23 08:56:56;;;;;;;5.13;2.97;;;15.60;99.90;;;;;;5027072;28;20438;-66
2022/05/23 08:59:25;;;;;;;5.90;3.15;;;15.60;99.90;;;;;;5010609;28;20111;-65
2022/05/23 09:02:19;;;;;;;4.82;2.70;;;15.60;99.90;;;;;;5009045;28;20073;-64
2022/05/23 09:05:09;;;;;;;9.07;3.22;;;15.60;99.90;;;;;;5007346;28;20105;-64
2022/05/23 09:07:52;;;;;;;6.72;3.35;;;15.60;99.90;;;;;;5010184;28;20034;-67
2022/05/23 09:10:30;;;;;;;5.00;2.60;;;15.60;99.90;;;;;;5009850;28;20485;-67
2022/05/23 09:12:55;;;;;;;6.47;3.55;;;15.60;99.90;;;;;;5027751;28;20104;-65
2022/05/23 09:15:23;;;;;;;5.20;2.75;;;15.60;99.90;;;;;;5030361;28;20502;-64
2022/05/23 09:17:56;;;;;;;4.70;3.08;;;15.70;99.90;;;;;;5018668;28;20025;-63
2022/05/23 09:20:54;;;;;;;8.55;3.20;;;15.70;99.90;;;;;;5010621;28;20113;-64
2022/05/23 09:23:24;;;;;;;5.18;2.85;;;15.80;99.90;;;;;;5008374;28;20038;-65
2022/05/23 09:25:51;;;;;;;;;;;15.90;99.90;;;;;;5007310;28;20113;-64
2022/05/23 09:28:28;;;;;;;5.38;2.78;;;15.90;99.90;;;;;;5022537;28;20413;-65
2022/05/23 09:31:00;;;;;;;9.52;2.78;;;16.00;99.90;;;;;;5026761;28;20045;-64
2022/05/23 09:33:29;;;;;;;4.60;2.70;;;16.00;99.90;;;;;;5028824;28;20128;-66
2022/05/23 09:36:09;;;;;;;4.53;2.58;;;16.10;99.90;;;;;;5029600;28;20028;-66
2022/05/23 09:38:45;;;;;;;4.93;3.08;;;16.00;99.90;;;;;;5030219;28;20021;-65
2022/05/23 09:49:52;;;;;;;5.38;2.75;;;15.90;99.90;;;;;;5028741;28;20045;-65
2022/05/23 09:52:29;;;;;;;5.93;2.60;;;15.70;99.90;;;;;;5007995;28;20022;-65
2022/05/23 09:55:05;;;;;;;9.93;3.65;;;15.70;99.90;;;;;;5027638;28;20025;-65
2022/05/23 09:57:36;;;;;;;4.22;2.78;;;15.60;99.90;;;;;;5029634;28;20029;-65
2022/05/23 10:00:18;;;;;;;4.18;2.67;;;15.60;99.90;;;;;;5026327;28;20056;-65
2022/05/23 10:03:01;;;;;;;6.22;3.00;;;15.50;99.90;;;;;;5029789;28;20045;-65
2022/05/23 10:05:36;;;;;;;8.52;2.92;;;15.60;99.90;;;;;;5029806;28;20021;-65
2022/05/23 10:08:09;;;;;;;6.45;2.70;;;15.60;99.90;;;;;;5030010;28;20029;-65
2022/05/23 10:10:37;;;;;;;5.95;3.03;;;15.60;99.90;;;;;;5029431;28;20519;-65
2022/05/23 10:13:25;;;;;;;4.43;2.90;;;15.70;99.90;;;;;;5029196;28;20033;-65
2022/05/23 10:15:54;;;;;;;4.97;3.50;;;15.80;99.90;;;;;;5029011;28;20068;-65
2022/05/23 10:18:32;;;;;;;6.22;3.40;;;15.80;99.90;;;;;;5029672;28;20021;-65
2022/05/23 10:21:00;;;;;;;5.90;3.40;;;16.00;99.90;;;;;;5029195;28;20087;-65
2022/05/23 10:23:33;;;;;;;5.47;3.20;;;15.90;99.90;;;;;;5026081;28;20365;-66
2022/05/23 10:26:07;;;;;;;5.85;3.60;;;15.90;99.90;;;;;;5028857;28;20030;-65
2022/05/23 10:28:53;;;;;;;9.73;3.28;;;15.90;99.90;;;;;;5031425;28;20051;-66
2022/05/23 10:31:25;;;;;;;8.30;3.67;;;16.00;99.90;;;;;;5033669;28;20065;-65
2022/05/23 10:33:59;;;;;;;5.63;2.90;;;16.10;99.90;;;;;;5033587;28;20048;-65
2022/05/23 10:36:29;;;;;;;8.43;3.28;;;16.30;99.90;;;;;;5033622;28;20503;-65
2022/05/23 10:42:13;;;;;;;7.13;3.35;;;16.30;99.90;;;;;;5029984;28;20125;-65
2022/05/23 10:44:48;;;;;;;6.13;3.10;;;16.30;99.90;;;;;;5030888;28;20371;-65
2022/05/23 10:47:34;;;;;;;7.57;3.03;;;16.30;99.90;;;;;;5033573;28;20025;-65
2022/05/23 10:50:09;;;;;;;6.65;3.13;;;16.30;99.90;;;;;;5033391;28;20430;-65
2022/05/23 10:53:12;;;;;;;5.05;2.95;;;16.30;99.90;;;;;;5033371;28;20061;-66
2022/05/23 10:55:55;;;;;;;7.32;2.42;;;16.30;99.90;;;;;;5029627;28;20014;-65
2022/05/23 10:58:24;;;;;;;7.57;2.55;;;16.30;99.90;;;;;;5029753;28;20041;-65
2022/05/23 11:01:03;;;;;;;9.57;3.97;;;16.30;99.90;;;;;;5033074;28;20053;-65
2022/05/23 11:04:00;;;;;;;6.68;2.70;;;16.30;99.90;;;;;;5033001;28;20467;-65
2022/05/23 11:06:41;;;;;;;5.13;2.65;;;16.40;99.90;;;;;;5032885;28;20034;-65
2022/05/23 11:09:37;;;;;;;3.58;2.20;;;16.50;99.90;;;;;;5032739;28;20024;-65
2022/05/23 11:12:03;;;;;;;4.90;2.40;;;16.60;99.90;;;;;;5032732;28;20028;-65
2022/05/23 11:14:43;;;;;;;5.75;2.38;;;16.70;99.90;;;;;;5029281;28;20033;-65
2022/05/23 11:17:52;;;;;;;7.53;2.72;;;16.70;99.90;;;;;;5029430;28;20104;-65
2022/05/23 11:20:25;;;;;;;8.63;2.45;;;16.90;99.90;;;;;;5029293;28;20038;-65
2022/05/23 11:23:08;;;;;;;4.72;2.67;;;17.00;99.90;;;;;;5029403;28;20038;-65
2022/05/23 11:25:43;;;;;;;3.75;2.25;;;16.70;99.90;;;;;;5028907;28;20025;-65
2022/05/23 11:34:22;;;;;;;6.90;3.30;;;16.60;99.90;;;;;;5030040;28;20091;-66
2022/05/23 11:37:01;;;;;;;7.18;3.10;;;16.50;99.90;;;;;;5028165;28;20091;-65
2022/05/23 11:39:48;;;;;;;4.88;2.78;;;16.50;99.90;;;;;;5029477;28;20049;-65
2022/05/23 11:42:27;;;;;;;6.40;3.38;;;16.60;99.90;;;;;;5028891;28;20053;-65
2022/05/23 11:44:57;;;;;;;8.00;2.97;;;16.60;99.90;;;;;;5028802;28;20033;-66
2022/05/23 11:47:26;;;;;;;6.25;2.83;;;16.40;99.90;;;;;;5029135;28;20035;-66
2022/05/23 11:50:13;;;;;;;5.88;3.58;;;16.60;99.90;;;;;;5029127;28;20029;-66
2022/05/23 11:52:47;;;;;;;4.75;3.03;;;16.80;99.90;;;;;;5026115;28;20221;-66
2022/05/23 11:55:51;;;;;;;6.03;2.70;;;16.90;99.90;;;;;;5028833;28;20030;-65
2022/05/23 11:58:23;;;;;;;6.63;2.67;;;17.20;99.90;;;;;;5028811;28;20017;-66
2022/05/23 12:01:15;;;;;;;6.68;3.22;;;17.20;99.90;;;;;;5011134;28;20621;-66
2022/05/23 12:03:50;;;;;;;5.03;2.90;;;17.20;99.90;;;;;;5028995;28;20223;-65
2022/05/23 12:06:20;;;;;;;8.68;3.97;;;17.00;99.90;;;;;;5029154;28;20056;-66
2022/05/23 12:09:12;;;;;;;8.90;4.32;;;17.00;99.90;;;;;;5030909;28;20325;-67
2022/05/23 12:11:40;;;;;;;8.00;3.58;;;16.80;99.90;;;;;;5031446;28;20060;-65
2022/05/23 12:14:31;;;;;;;5.65;3.45;;;16.80;99.90;;;;;;5031922;28;20041;-65
2022/05/23 12:16:57;;;;;;;5.35;3.35;;;16.60;99.90;;;;;;5031978;28;20033;-65
2022/05/23 12:19:23;;;;;;;5.57;3.08;;;16.60;99.90;;;;;;5018909;28;20022;-65
2022/05/23 12:21:49;;;;;;;6.18;3.58;;;16.50;99.90;;;;;;5011885;28;20093;-65
2022/05/23 12:24:23;;;;;;;5.28;2.55;;;16.30;99.90;;;;;;5009786;28;20026;-68
2022/05/23 12:26:53;;;;;;;6.38;2.50;;;16.20;99.90;;;;;;5011114;28;20029;-65
2022/05/23 12:29:34;;;;;;;10.90;2.75;;;16.10;99.90;;;;;;5030103;28;20037;-66
2022/05/23 12:32:25;;;;;;;3.83;2.33;;;16.20;99.90;;;;;;5031710;28;20108;-65
2022/05/23 12:34:55;;;;;;;11.02;2.65;;;16.20;99.90;;;;;;5031413;28;20137;-65
2022/05/23 12:37:28;;;;;;;5.88;2.05;;;16.20;99.90;;;;;;5031497;28;20022;-65
2022/05/23 12:40:06;;;;;;;6.32;2.75;;;16.30;99.90;;;;;;5013478;28;20037;-66
2022/05/23 12:42:50;;;;;;;4.70;2.20;;;16.20;99.90;;;;;;5031067;28;20120;-66
2022/05/23 12:45:19;;;;;;;4.10;2.28;;;16.20;99.90;;;;;;5031137;28;20021;-65
2022/05/23 12:47:50;;;;;;;7.43;3.20;;;16.30;99.90;;;;;;5030817;28;20022;-66
2022/05/23 12:50:20;;;;;;;6.13;2.20;;;16.40;99.90;;;;;;5031071;28;20436;-67
2022/05/23 12:53:20;;;;;;;4.47;2.35;;;16.50;99.90;;;;;;5031267;28;20032;-67
2022/05/23 12:56:13;;;;;;;4.40;2.25;;;16.70;99.90;;;;;;5030811;28;20032;-66
2022/05/23 12:59:16;;;;;;;2.13;1.48;;;16.60;99.90;;;;;;5030889;28;20017;-67
2022/05/23 13:01:45;;;;;;;7.05;2.33;;;16.50;99.90;;;;;;5030559;28;20049;-67
2022/05/23 13:04:25;;;;;;;5.18;2.35;;;16.40;99.90;;;;;;5030876;28;20018;-66
2022/05/23 13:07:02;;;;;;;4.95;2.40;;;16.30;99.90;;;;;;5030961;28;20160;-67
2022/05/23 13:09:39;;;;;;;4.18;2.15;;;16.30;99.90;;;;;;5030777;28;20519;-66
2022/05/23 13:12:11;;;;;;;3.10;1.83;;;16.30;99.90;;;;;;5030562;28;20370;-66
2022/05/23 13:15:07;;;;;;;2.97;1.90;;;16.30;99.90;;;;;;5030640;28;20108;-67
2022/05/23 13:17:44;;;;;;;3.58;2.15;;;16.20;99.90;;;;;;5009666;28;20110;-67
2022/05/23 13:23:17;;;;;;;3.40;1.95;;;15.80;99.90;;;;;;5030775;28;20107;-67
2022/05/23 13:25:45;;;;;;;4.13;2.10;;;15.90;99.90;;;;;;5030223;28;20053;-67
2022/05/23 13:28:13;;;;;;;3.35;2.33;;;15.90;99.90;;;;;;5030599;28;20277;-67
2022/05/23 13:30:46;;;;;;;9.35;2.72;;;15.80;99.90;;;;;;5030428;28;20425;-66
2022/05/23 13:33:26;;;;;;;7.70;2.97;;;15.70;99.90;;;;;;5027373;28;20485;-67
2022/05/23 13:36:03;;;;;;;;;;;15.60;99.90;;;;;;5027692;28;20075;-66
2022/05/23 13:38:35;;;;;;;3.78;2.15;;;15.60;99.90;;;;;;5029874;28;19905;-66
2022/05/23 13:41:04;;;;;;;8.30;2.28;;;15.60;99.90;;;;;;5029862;28;20112;-66
2022/05/23 13:43:50;;;;;;;5.32;2.35;;;15.80;99.90;;;;;;5029356;28;20022;-66
2022/05/23 13:46:33;;;;;;;5.20;1.95;;;15.90;99.90;;;;;;5026115;28;20076;-69
2022/05/23 13:49:09;;;;;;;6.32;2.15;;;16.00;99.90;;;;;;5028024;28;20167;-65
2022/05/23 13:51:48;;;;;;;5.05;2.00;;;16.30;99.90;;;;;;5012297;28;20388;-67
2022/05/23 13:54:35;;;;;;;4.40;2.03;;;16.50;99.90;;;;;;5028468;28;20017;-68
2022/05/23 13:57:18;;;;;;;5.22;1.95;;;16.50;99.90;;;;;;5023482;28;20079;-65
2022/05/23 14:00:01;;;;;;;4.18;1.55;;;16.60;99.90;;;;;;5025827;28;20034;-65
2022/05/23 14:02:33;;;;;;;4.05;1.70;;;16.50;99.90;;;;;;5026778;28;20073;-66
2022/05/23 14:05:01;;;;;;;7.53;2.53;;;16.60;99.90;;;;;;5027090;28;20026;-65
2022/05/23 14:07:30;;;;;;;3.15;1.83;;;16.80;99.90;;;;;;5027304;28;20459;-67
2022/05/23 14:09:56;;;;;;;6.90;2.08;;;16.90;99.90;;;;;;5026723;28;20025;-66